Time;durP1;ratioP1;P1;durP2;ratioP2;P2;SDS_P1;SDS_P2;PMS_P1;PMS_P2;Temp;Humidity;BMP_temperature;BMP_pressure;BME280_temperature;BME280_humidity;BME280_pressure;Samples;Min_cycle;Max_cycle;Signal;HPM_P1;HPM_P2
2021/12/27 00:00:22;;;;;;;40.38;17.15;;;;;;;;;;5078932;28;20083;-81
2021/12/27 00:02:49;;;;;;;47.42;18.52;;;;;;;;;;5071576;28;20822;-81
2021/12/27 00:05:16;;;;;;;43.08;19.35;;;;;;;;;;5074056;28;20069;-81
2021/12/27 00:07:47;;;;;;;43.67;18.48;;;;;;;;;;5069865;28;20057;-81
2021/12/27 00:10:14;;;;;;;41.70;18.85;;;;;;;;;;5073183;28;20057;-80
2021/12/27 00:12:40;;;;;;;45.60;19.13;;;;;;;;;;5072586;28;20076;-82
2021/12/27 00:15:07;;;;;;;43.90;18.45;;;;;;;;;;5072972;28;20088;-81
2021/12/27 00:17:33;;;;;;;53.80;18.73;;;;;;;;;;5067835;28;20072;-81
2021/12/27 00:19:59;;;;;;;52.72;18.95;;;;;;;;;;5069612;28;20103;-80
2021/12/27 00:22:26;;;;;;;42.35;18.15;;;;;;;;;;5073081;28;20569;-80
2021/12/27 00:24:52;;;;;;;46.67;18.95;;;;;;;;;;5081028;28;20522;-81
2021/12/27 00:27:19;;;;;;;40.40;17.52;;;;;;;;;;5070300;28;20620;-81
2021/12/27 00:29:45;;;;;;;43.65;17.55;;;;;;;;;;5072688;28;20817;-81
2021/12/27 00:32:11;;;;;;;38.70;17.33;;;;;;;;;;5069997;28;20086;-80
2021/12/27 00:34:38;;;;;;;41.17;17.25;;;;;;;;;;5073654;28;20053;-81
2021/12/27 00:37:05;;;;;;;40.10;18.13;;;;;;;;;;5068154;28;20503;-80
2021/12/27 00:39:32;;;;;;;45.90;19.05;;;;;;;;;;5072800;28;20057;-81
2021/12/27 00:41:58;;;;;;;43.17;18.38;;;;;;;;;;5070095;28;20079;-81
2021/12/27 00:44:25;;;;;;;41.42;18.02;;;;;;;;;;5075026;28;20080;-80
2021/12/27 00:46:51;;;;;;;42.70;18.10;;;;;;;;;;5076767;28;20099;-81
2021/12/27 00:49:18;;;;;;;40.88;18.45;;;;;;;;;;5068939;28;20056;-81
2021/12/27 00:51:44;;;;;;;41.47;18.30;;;;;;;;;;5076552;28;20045;-81
2021/12/27 00:54:11;;;;;;;49.70;18.65;;;;;;;;;;5074058;28;20103;-81
2021/12/27 00:56:38;;;;;;;41.90;18.15;;;;;;;;;;5072034;28;20617;-80
2021/12/27 00:59:04;;;;;;;47.35;18.95;;;;;;;;;;5081641;28;20533;-81
2021/12/27 01:01:30;;;;;;;48.00;19.10;;;;;;;;;;5079745;28;20164;-81
2021/12/27 01:03:59;;;;;;;48.38;19.20;;;;;;;;;;5084405;28;20098;-81
2021/12/27 01:06:26;;;;;;;52.72;19.02;;;;;;;;;;5078261;28;20049;-81
2021/12/27 01:08:55;;;;;;;44.95;18.23;;;;;;;;;;5073501;28;20108;-81
2021/12/27 01:11:40;;;;;;;44.60;18.48;;;;;;;;;;5080398;28;20044;-81
2021/12/27 01:14:13;;;;;;;52.80;19.67;;;;;;;;;;5081880;28;20104;-81
2021/12/27 01:16:41;;;;;;;52.13;20.23;;;;;;;;;;5078550;28;20053;-81
2021/12/27 01:19:08;;;;;;;48.80;19.02;;;;;;;;;;5079515;28;20402;-81
2021/12/27 01:21:35;;;;;;;55.63;19.25;;;;;;;;;;5077397;28;20111;-81
2021/12/27 01:24:01;;;;;;;50.40;20.48;;;;;;;;;;5083372;28;20072;-80
2021/12/27 01:26:28;;;;;;;44.63;19.30;;;;;;;;;;5082374;28;20056;-80
2021/12/27 01:28:56;;;;;;;51.72;20.42;;;;;;;;;;5074169;28;20135;-81
2021/12/27 01:31:23;;;;;;;51.80;20.88;;;;;;;;;;5072461;28;20088;-81
2021/12/27 01:33:50;;;;;;;54.97;20.95;;;;;;;;;;5077793;28;20059;-80
2021/12/27 01:36:17;;;;;;;54.25;20.65;;;;;;;;;;5080820;28;20094;-81
2021/12/27 01:38:44;;;;;;;47.72;18.45;;;;;;;;;;5080585;28;20052;-81
2021/12/27 01:41:13;;;;;;;44.95;18.60;;;;;;;;;;5078901;28;20088;-80
2021/12/27 01:43:40;;;;;;;53.78;19.88;;;;;;;;;;5080412;28;20057;-80
2021/12/27 01:46:08;;;;;;;49.92;20.05;;;;;;;;;;5071389;28;20053;-80
2021/12/27 01:48:38;;;;;;;54.83;20.13;;;;;;;;;;5080392;28;20049;-80
2021/12/27 01:51:06;;;;;;;48.08;19.20;;;;;;;;;;5073501;28;20053;-80
2021/12/27 01:53:33;;;;;;;54.78;19.20;;;;;;;;;;5073667;28;20080;-80
2021/12/27 01:56:00;;;;;;;50.63;20.52;;;;;;;;;;5073814;28;20061;-81
2021/12/27 01:58:27;;;;;;;50.88;19.73;;;;;;;;;;5071001;28;20057;-81
2021/12/27 02:00:55;;;;;;;51.47;19.30;;;;;;;;;;5088348;27;20110;-80
2021/12/27 02:03:22;;;;;;;52.78;19.83;;;;;;;;;;5076736;28;20072;-81
2021/12/27 02:05:48;;;;;;;54.33;20.38;;;;;;;;;;5079195;28;20052;-80
2021/12/27 02:08:15;;;;;;;53.30;20.08;;;;;;;;;;5074443;28;20096;-81
2021/12/27 02:10:42;;;;;;;50.33;19.92;;;;;;;;;;5074400;28;20051;-80
2021/12/27 02:13:08;;;;;;;46.40;19.67;;;;;;;;;;5076194;28;20063;-80
2021/12/27 02:15:35;;;;;;;50.20;20.23;;;;;;;;;;5074268;28;20080;-81
2021/12/27 02:18:03;;;;;;;46.60;18.75;;;;;;;;;;5081887;28;20053;-80
2021/12/27 02:20:31;;;;;;;49.08;18.75;;;;;;;;;;5074853;28;20080;-80
2021/12/27 02:23:01;;;;;;;50.58;19.15;;;;;;;;;;5081070;28;20089;-81
2021/12/27 02:25:29;;;;;;;50.55;19.60;;;;;;;;;;5071982;28;20184;-81
2021/12/27 02:27:56;;;;;;;46.78;19.45;;;;;;;;;;5070221;28;20076;-81
2021/12/27 02:30:23;;;;;;;41.88;19.13;;;;;;;;;;5070388;28;20049;-81
2021/12/27 02:32:51;;;;;;;46.30;19.00;;;;;;;;;;5076352;28;20053;-81
2021/12/27 02:35:29;;;;;;;44.22;18.38;;;;;;;;;;5072223;28;20758;-81
2021/12/27 02:37:56;;;;;;;40.58;17.42;;;;;;;;;;5072544;28;20049;-80
2021/12/27 02:40:24;;;;;;;43.50;17.60;;;;;;;;;;5074763;28;20209;-80
2021/12/27 02:42:55;;;;;;;39.53;17.63;;;;;;;;;;5073375;28;20079;-80
2021/12/27 02:45:22;;;;;;;47.67;17.80;;;;;;;;;;5073380;28;20621;-80
2021/12/27 02:47:48;;;;;;;44.38;18.10;;;;;;;;;;5071103;28;20099;-81
2021/12/27 02:50:15;;;;;;;54.97;18.80;;;;;;;;;;5072067;28;20531;-81
2021/12/27 02:52:41;;;;;;;52.65;19.25;;;;;;;;;;5070612;28;20081;-80
2021/12/27 02:55:10;;;;;;;54.35;19.92;;;;;;;;;;5072937;28;20069;-80
2021/12/27 02:57:36;;;;;;;60.13;20.40;;;;;;;;;;5068700;28;20107;-81
2021/12/27 03:00:03;;;;;;;57.00;20.75;;;;;;;;;;5072408;28;20056;-80
2021/12/27 03:02:29;;;;;;;56.08;20.33;;;;;;;;;;5075835;28;20053;-81
2021/12/27 03:04:55;;;;;;;58.70;21.20;;;;;;;;;;5071775;28;20509;-80
2021/12/27 03:07:22;;;;;;;58.60;20.08;;;;;;;;;;5069838;28;20051;-80
2021/12/27 03:09:49;;;;;;;59.60;19.70;;;;;;;;;;5070478;28;20089;-80
2021/12/27 03:12:15;;;;;;;56.17;21.38;;;;;;;;;;5073089;28;20134;-80
2021/12/27 03:14:41;;;;;;;60.70;21.73;;;;;;;;;;5074743;28;20087;-80
2021/12/27 03:17:08;;;;;;;67.80;22.52;;;;;;;;;;5070574;28;20142;-80
2021/12/27 03:19:34;;;;;;;67.05;20.52;;;;;;;;;;5074194;28;20092;-81
2021/12/27 03:22:00;;;;;;;64.72;21.20;;;;;;;;;;5071891;28;21369;-80
2021/12/27 03:24:27;;;;;;;64.38;21.30;;;;;;;;;;5081016;28;20123;-80
2021/12/27 03:26:53;;;;;;;62.30;21.15;;;;;;;;;;5071840;28;20048;-81
2021/12/27 03:29:19;;;;;;;73.85;23.15;;;;;;;;;;5071023;28;20049;-80
2021/12/27 03:31:46;;;;;;;67.90;21.05;;;;;;;;;;5069370;28;20142;-80
2021/12/27 03:34:12;;;;;;;84.97;22.77;;;;;;;;;;5070132;28;20060;-80
2021/12/27 03:36:40;;;;;;;63.72;22.77;;;;;;;;;;5069464;28;20057;-80
2021/12/27 03:39:08;;;;;;;65.28;21.48;;;;;;;;;;5070716;28;20484;-80
2021/12/27 03:41:34;;;;;;;72.97;21.90;;;;;;;;;;5075381;28;20080;-81
2021/12/27 03:44:01;;;;;;;78.88;23.35;;;;;;;;;;5073973;28;20049;-80
2021/12/27 03:46:27;;;;;;;86.65;22.85;;;;;;;;;;5071635;28;20289;-80
2021/12/27 03:48:54;;;;;;;64.93;20.50;;;;;;;;;;5068828;28;20057;-81
2021/12/27 03:51:20;;;;;;;59.35;20.58;;;;;;;;;;5068977;28;20110;-81
2021/12/27 03:53:47;;;;;;;65.47;21.30;;;;;;;;;;5081337;28;20056;-81
2021/12/27 03:56:13;;;;;;;90.65;22.88;;;;;;;;;;5069299;28;20500;-80
2021/12/27 03:59:18;;;;;;;67.80;20.73;;;;;;;;;;5080026;28;20087;-80
2021/12/27 04:01:44;;;;;;;66.25;21.50;;;;;;;;;;5076329;28;20080;-80
2021/12/27 04:04:11;;;;;;;66.65;20.42;;;;;;;;;;5077021;28;20136;-80
2021/12/27 04:06:38;;;;;;;83.32;22.80;;;;;;;;;;5073482;28;20053;-80
2021/12/27 04:09:04;;;;;;;80.90;22.35;;;;;;;;;;5069785;28;20347;-80
2021/12/27 04:11:31;;;;;;;80.15;21.98;;;;;;;;;;5081427;28;20077;-80
2021/12/27 04:14:02;;;;;;;80.65;22.38;;;;;;;;;;5075106;28;20064;-80
2021/12/27 04:16:29;;;;;;;61.30;20.98;;;;;;;;;;5070673;28;20053;-80
2021/12/27 04:18:55;;;;;;;72.43;21.25;;;;;;;;;;5069475;28;20057;-80
2021/12/27 04:21:22;;;;;;;68.15;21.35;;;;;;;;;;5073447;28;20495;-80
2021/12/27 04:23:48;;;;;;;72.68;21.50;;;;;;;;;;5075456;28;20048;-80
2021/12/27 04:26:14;;;;;;;86.82;22.33;;;;;;;;;;5082890;28;20508;-80
2021/12/27 04:28:41;;;;;;;78.35;22.02;;;;;;;;;;5088195;28;20523;-80
2021/12/27 04:31:07;;;;;;;72.82;22.05;;;;;;;;;;5079634;28;20057;-80
2021/12/27 04:33:34;;;;;;;71.13;21.45;;;;;;;;;;5082208;28;20143;-80
2021/12/27 04:36:00;;;;;;;63.60;20.90;;;;;;;;;;5075976;28;20091;-80
2021/12/27 04:38:26;;;;;;;60.33;19.52;;;;;;;;;;5077620;28;20114;-80
2021/12/27 04:40:53;;;;;;;69.75;21.13;;;;;;;;;;5084732;28;20057;-79
2021/12/27 04:43:20;;;;;;;61.17;20.63;;;;;;;;;;5075930;28;20486;-80
2021/12/27 04:45:48;;;;;;;74.80;21.27;;;;;;;;;;5080730;28;20504;-80
2021/12/27 04:48:14;;;;;;;67.82;19.55;;;;;;;;;;5076375;28;20096;-80
2021/12/27 04:50:41;;;;;;;65.35;20.77;;;;;;;;;;5085325;28;20131;-80
2021/12/27 04:53:07;;;;;;;52.45;19.75;;;;;;;;;;5075214;28;20857;-80
2021/12/27 04:55:37;;;;;;;54.25;18.83;;;;;;;;;;5079766;28;20045;-80
2021/12/27 04:58:05;;;;;;;60.10;19.77;;;;;;;;;;5080781;28;20519;-80
2021/12/27 05:00:31;;;;;;;58.75;20.00;;;;;;;;;;5076760;28;20080;-80
2021/12/27 05:02:58;;;;;;;53.92;20.75;;;;;;;;;;5083551;28;20052;-80
2021/12/27 05:05:26;;;;;;;54.00;18.25;;;;;;;;;;5080318;28;20053;-80
2021/12/27 05:07:52;;;;;;;52.85;18.80;;;;;;;;;;5077262;28;20508;-80
2021/12/27 05:10:18;;;;;;;57.97;19.17;;;;;;;;;;5076599;28;20083;-80
2021/12/27 05:12:45;;;;;;;64.55;19.60;;;;;;;;;;5077782;28;20056;-80
2021/12/27 05:15:11;;;;;;;69.90;19.98;;;;;;;;;;5082693;28;20087;-80
2021/12/27 05:17:38;;;;;;;63.60;19.60;;;;;;;;;;5079832;28;20135;-80
2021/12/27 05:20:05;;;;;;;52.03;18.30;;;;;;;;;;5081847;28;20079;-81
2021/12/27 05:22:32;;;;;;;62.67;19.52;;;;;;;;;;5081969;28;20045;-80
2021/12/27 05:24:58;;;;;;;68.40;20.77;;;;;;;;;;5080390;28;20556;-80
2021/12/27 05:27:24;;;;;;;68.55;19.25;;;;;;;;;;5073759;28;20084;-81
2021/12/27 05:30:11;;;;;;;74.45;20.95;;;;;;;;;;5092759;28;20087;-80
2021/12/27 05:32:39;;;;;;;76.75;21.02;;;;;;;;;;5079746;28;20657;-80
2021/12/27 05:35:07;;;;;;;72.60;20.10;;;;;;;;;;5077293;28;20061;-81
2021/12/27 05:37:33;;;;;;;74.15;20.25;;;;;;;;;;5076952;28;20077;-80
2021/12/27 05:40:04;;;;;;;65.30;19.42;;;;;;;;;;5071519;28;20095;-81
2021/12/27 05:42:31;;;;;;;82.57;20.50;;;;;;;;;;5074368;28;20207;-81
2021/12/27 05:44:58;;;;;;;85.43;22.75;;;;;;;;;;5075721;28;20053;-81
2021/12/27 05:47:25;;;;;;;97.70;22.65;;;;;;;;;;5077858;28;20055;-81
2021/12/27 05:49:51;;;;;;;97.50;23.05;;;;;;;;;;5070288;28;20507;-80
2021/12/27 05:52:17;;;;;;;111.85;22.63;;;;;;;;;;5074067;28;20328;-80
2021/12/27 05:54:44;;;;;;;77.80;21.23;;;;;;;;;;5072698;28;20585;-81
2021/12/27 05:57:10;;;;;;;100.00;23.17;;;;;;;;;;5069660;28;20531;-81
2021/12/27 05:59:44;;;;;;;121.20;24.25;;;;;;;;;;5081525;28;20102;-81
2021/12/27 06:02:10;;;;;;;92.28;22.08;;;;;;;;;;5076926;28;20084;-81
2021/12/27 06:04:37;;;;;;;87.88;22.25;;;;;;;;;;5072545;28;20053;-81
2021/12/27 06:07:03;;;;;;;140.48;24.75;;;;;;;;;;5072045;28;20056;-81
2021/12/27 06:09:30;;;;;;;82.82;21.25;;;;;;;;;;5070120;28;20107;-81
2021/12/27 06:11:56;;;;;;;89.13;21.88;;;;;;;;;;5080980;28;20088;-81
2021/12/27 06:14:22;;;;;;;115.28;22.80;;;;;;;;;;5072215;28;20095;-81
2021/12/27 06:16:49;;;;;;;87.63;22.40;;;;;;;;;;5073565;28;21077;-81
2021/12/27 06:19:17;;;;;;;118.43;23.27;;;;;;;;;;5080924;28;20085;-80
2021/12/27 06:21:43;;;;;;;90.40;22.25;;;;;;;;;;5072360;28;20096;-81
2021/12/27 06:24:10;;;;;;;114.97;23.45;;;;;;;;;;5070174;28;21080;-81
2021/12/27 06:26:36;;;;;;;105.50;22.92;;;;;;;;;;5069249;28;20111;-82
2021/12/27 06:29:02;;;;;;;78.03;21.90;;;;;;;;;;5070944;28;20083;-79
2021/12/27 06:31:29;;;;;;;113.60;23.10;;;;;;;;;;5074960;28;20076;-80
2021/12/27 06:33:55;;;;;;;104.18;22.70;;;;;;;;;;5068136;28;20057;-79
2021/12/27 06:36:22;;;;;;;102.90;22.73;;;;;;;;;;5070211;28;20134;-79
2021/12/27 06:38:48;;;;;;;163.25;23.98;;;;;;;;;;5072983;28;20114;-79
2021/12/27 06:41:15;;;;;;;83.47;21.48;;;;;;;;;;5084469;28;21052;-79
2021/12/27 06:43:41;;;;;;;133.82;24.02;;;;;;;;;;5080737;28;20084;-79
2021/12/27 06:46:08;;;;;;;86.53;22.00;;;;;;;;;;5074829;28;20053;-79
2021/12/27 06:48:35;;;;;;;92.82;21.58;;;;;;;;;;5083576;28;20084;-79
2021/12/27 06:51:01;;;;;;;106.90;21.60;;;;;;;;;;5075124;28;20090;-79
2021/12/27 06:53:30;;;;;;;173.95;26.63;;;;;;;;;;5069193;28;20085;-80
2021/12/27 06:55:57;;;;;;;214.57;30.85;;;;;;;;;;5067230;28;20539;-79
2021/12/27 06:58:23;;;;;;;161.85;28.13;;;;;;;;;;5068653;28;20084;-80
2021/12/27 07:00:50;;;;;;;151.75;26.63;;;;;;;;;;5083704;28;20064;-79
2021/12/27 07:03:17;;;;;;;121.57;24.45;;;;;;;;;;5088891;28;20056;-79
2021/12/27 07:05:43;;;;;;;93.05;23.27;;;;;;;;;;5088671;28;20507;-79
2021/12/27 07:08:10;;;;;;;230.80;31.52;;;;;;;;;;5088645;28;20118;-79
2021/12/27 07:10:36;;;;;;;172.55;27.20;;;;;;;;;;5087248;28;20098;-81
2021/12/27 07:13:04;;;;;;;212.80;29.70;;;;;;;;;;5087516;28;20080;-79
2021/12/27 07:15:30;;;;;;;268.25;33.50;;;;;;;;;;5089664;28;20094;-81
2021/12/27 07:17:57;;;;;;;186.82;29.27;;;;;;;;;;5092585;28;20135;-81
2021/12/27 07:20:23;;;;;;;184.75;28.00;;;;;;;;;;5081649;28;20045;-80
2021/12/27 07:22:50;;;;;;;133.30;25.85;;;;;;;;;;5080841;28;20114;-81
2021/12/27 07:25:16;;;;;;;136.43;25.23;;;;;;;;;;5072659;28;20053;-81
2021/12/27 07:27:43;;;;;;;175.65;27.42;;;;;;;;;;5081425;28;20041;-83
2021/12/27 07:30:10;;;;;;;105.35;21.80;;;;;;;;;;5088497;28;20329;-82
2021/12/27 07:32:37;;;;;;;236.27;30.55;;;;;;;;;;5075555;28;20523;-81
2021/12/27 07:35:05;;;;;;;188.90;27.17;;;;;;;;;;5071616;28;20580;-81
2021/12/27 07:37:31;;;;;;;166.23;25.95;;;;;;;;;;5071557;28;20237;-81
2021/12/27 07:39:57;;;;;;;164.45;29.35;;;;;;;;;;5070281;28;20089;-83
2021/12/27 07:42:24;;;;;;;226.25;28.95;;;;;;;;;;5072547;28;20056;-81
2021/12/27 07:44:50;;;;;;;257.20;34.88;;;;;;;;;;5071611;28;20083;-81
2021/12/27 07:47:17;;;;;;;208.02;30.70;;;;;;;;;;5077891;28;20450;-81
2021/12/27 07:49:43;;;;;;;253.00;32.10;;;;;;;;;;5079260;28;20053;-80
2021/12/27 07:52:09;;;;;;;281.73;35.08;;;;;;;;;;5079925;28;20107;-81
2021/12/27 07:54:36;;;;;;;171.95;28.55;;;;;;;;;;5086317;28;20573;-81
2021/12/27 07:57:03;;;;;;;200.77;29.52;;;;;;;;;;5087029;28;20098;-83
2021/12/27 07:59:29;;;;;;;184.70;30.08;;;;;;;;;;5085184;28;20053;-81
2021/12/27 08:01:57;;;;;;;216.95;31.80;;;;;;;;;;5082890;28;20103;-81
2021/12/27 08:04:24;;;;;;;135.10;27.35;;;;;;;;;;5081478;28;20871;-82
2021/12/27 08:06:50;;;;;;;190.25;30.52;;;;;;;;;;5088506;28;20052;-81
2021/12/27 08:09:16;;;;;;;142.02;27.85;;;;;;;;;;5071571;28;20084;-78
2021/12/27 08:11:44;;;;;;;230.45;32.63;;;;;;;;;;5071945;28;20199;-78
2021/12/27 08:14:10;;;;;;;197.48;30.50;;;;;;;;;;5074482;28;20515;-78
2021/12/27 08:16:36;;;;;;;213.60;32.28;;;;;;;;;;5070874;28;20495;-78
2021/12/27 08:19:03;;;;;;;162.10;28.10;;;;;;;;;;5078821;28;20524;-79
2021/12/27 08:21:31;;;;;;;218.63;30.95;;;;;;;;;;5070775;28;20079;-77
2021/12/27 08:24:00;;;;;;;134.00;26.58;;;;;;;;;;5071895;28;20106;-77
2021/12/27 08:26:27;;;;;;;129.68;25.13;;;;;;;;;;5068686;28;20049;-78
2021/12/27 08:28:54;;;;;;;167.43;29.65;;;;;;;;;;5072008;28;20080;-77
2021/12/27 08:31:20;;;;;;;222.95;32.05;;;;;;;;;;5072764;28;20077;-78
2021/12/27 08:33:47;;;;;;;152.70;28.08;;;;;;;;;;5078927;28;21375;-77
2021/12/27 08:36:13;;;;;;;172.50;28.52;;;;;;;;;;5080014;28;20138;-77
2021/12/27 08:38:40;;;;;;;158.27;28.10;;;;;;;;;;5077872;28;20492;-78
2021/12/27 08:41:06;;;;;;;171.05;27.70;;;;;;;;;;5076028;28;20516;-80
2021/12/27 08:43:33;;;;;;;151.63;27.25;;;;;;;;;;5072946;28;20282;-79
2021/12/27 08:45:59;;;;;;;162.80;28.85;;;;;;;;;;5072800;28;20511;-78
2021/12/27 08:48:27;;;;;;;126.10;25.25;;;;;;;;;;5068234;28;20092;-78
2021/12/27 08:50:53;;;;;;;117.95;24.73;;;;;;;;;;5068745;28;20577;-79
2021/12/27 08:53:20;;;;;;;226.52;30.45;;;;;;;;;;5079191;28;20676;-78
2021/12/27 08:55:46;;;;;;;126.45;25.90;;;;;;;;;;5068035;28;20404;-77
2021/12/27 08:58:12;;;;;;;105.38;25.75;;;;;;;;;;5063658;28;20518;-77
2021/12/27 09:00:39;;;;;;;139.13;26.48;;;;;;;;;;5074568;28;20088;-77
2021/12/27 09:03:05;;;;;;;102.95;23.73;;;;;;;;;;5082258;28;20052;-78
2021/12/27 09:05:32;;;;;;;91.82;22.15;;;;;;;;;;5070263;28;20056;-80
2021/12/27 09:07:58;;;;;;;96.05;23.60;;;;;;;;;;5076494;28;20049;-78
2021/12/27 09:10:25;;;;;;;99.55;23.50;;;;;;;;;;5070990;28;20057;-77
2021/12/27 09:12:51;;;;;;;93.95;23.73;;;;;;;;;;5080299;28;20053;-76
2021/12/27 09:15:17;;;;;;;83.20;22.52;;;;;;;;;;5088489;28;20056;-78
2021/12/27 09:17:44;;;;;;;82.38;23.10;;;;;;;;;;5094894;28;20063;-78
2021/12/27 09:20:11;;;;;;;80.55;23.58;;;;;;;;;;5090384;28;20115;-80
2021/12/27 09:22:38;;;;;;;83.20;22.35;;;;;;;;;;5075645;28;20138;-77
2021/12/27 09:25:05;;;;;;;88.90;23.10;;;;;;;;;;5075453;28;20053;-78
2021/12/27 09:27:33;;;;;;;84.78;21.55;;;;;;;;;;5074266;28;20052;-78
2021/12/27 09:30:00;;;;;;;84.15;22.75;;;;;;;;;;5082250;28;20057;-79
2021/12/27 09:32:26;;;;;;;76.78;20.77;;;;;;;;;;5076349;28;20049;-80
2021/12/27 09:34:53;;;;;;;75.50;22.45;;;;;;;;;;5081799;28;20132;-77
2021/12/27 09:37:19;;;;;;;83.65;23.88;;;;;;;;;;5083864;28;20084;-77
2021/12/27 09:39:52;;;;;;;75.22;21.77;;;;;;;;;;5086689;28;20052;-77
2021/12/27 09:42:21;;;;;;;75.13;22.85;;;;;;;;;;5084239;28;20133;-78
2021/12/27 09:44:48;;;;;;;75.80;22.13;;;;;;;;;;5085400;28;20139;-77
2021/12/27 09:47:14;;;;;;;79.07;22.63;;;;;;;;;;5082682;28;20526;-78
2021/12/27 09:49:41;;;;;;;88.55;23.50;;;;;;;;;;5077460;28;20080;-78
2021/12/27 09:52:12;;;;;;;68.15;21.25;;;;;;;;;;5080601;28;20053;-80
2021/12/27 09:54:39;;;;;;;74.03;22.55;;;;;;;;;;5086965;28;20052;-77
2021/12/27 09:57:06;;;;;;;72.97;22.55;;;;;;;;;;5083671;28;20507;-77
2021/12/27 09:59:32;;;;;;;67.70;22.02;;;;;;;;;;5080904;28;20049;-78
2021/12/27 10:01:58;;;;;;;75.20;21.35;;;;;;;;;;5072825;28;20519;-77
2021/12/27 10:04:25;;;;;;;70.63;23.35;;;;;;;;;;5082425;28;20064;-78
2021/12/27 10:06:52;;;;;;;72.03;22.10;;;;;;;;;;5081684;28;20049;-78
2021/12/27 10:09:18;;;;;;;61.42;21.67;;;;;;;;;;5089106;28;20110;-79
2021/12/27 10:11:46;;;;;;;53.83;19.58;;;;;;;;;;5081888;28;20497;-78
2021/12/27 10:14:14;;;;;;;53.70;20.13;;;;;;;;;;5080010;28;20048;-77
2021/12/27 10:16:42;;;;;;;58.05;19.77;;;;;;;;;;5073771;28;20503;-78
2021/12/27 10:19:09;;;;;;;51.72;20.50;;;;;;;;;;5083609;28;20099;-78
2021/12/27 10:21:41;;;;;;;58.53;19.63;;;;;;;;;;5081855;28;20056;-78
2021/12/27 10:24:15;;;;;;;61.85;21.13;;;;;;;;;;5086428;28;20067;-78
2021/12/27 10:26:45;;;;;;;47.17;18.42;;;;;;;;;;5076315;28;20099;-78
2021/12/27 10:29:16;;;;;;;47.05;18.52;;;;;;;;;;5090361;28;20518;-78
2021/12/27 10:31:58;;;;;;;44.03;17.80;;;;;;;;;;5085535;27;20053;-78
2021/12/27 10:34:29;;;;;;;49.75;18.23;;;;;;;;;;5084650;28;20088;-79
2021/12/27 10:37:02;;;;;;;49.65;18.80;;;;;;;;;;5088354;28;20122;-78
2021/12/27 10:39:48;;;;;;;44.78;19.10;;;;;;;;;;5074622;28;20115;-78
2021/12/27 10:42:16;;;;;;;49.05;18.90;;;;;;;;;;5076265;28;20123;-79
2021/12/27 10:44:43;;;;;;;45.92;18.35;;;;;;;;;;5079866;28;20079;-80
2021/12/27 10:47:24;;;;;;;39.67;16.67;;;;;;;;;;5079315;28;20524;-78
2021/12/27 10:49:50;;;;;;;38.13;17.25;;;;;;;;;;5081057;28;20584;-77
2021/12/27 10:52:17;;;;;;;37.25;16.42;;;;;;;;;;5083248;28;20143;-78
2021/12/27 10:54:43;;;;;;;30.95;16.15;;;;;;;;;;5076891;28;20096;-78
2021/12/27 10:57:10;;;;;;;35.40;16.63;;;;;;;;;;5086486;28;20110;-78
2021/12/27 10:59:36;;;;;;;34.17;16.35;;;;;;;;;;5079778;28;20068;-78
2021/12/27 11:02:13;;;;;;;31.90;15.23;;;;;;;;;;5086008;28;20084;-77
2021/12/27 11:04:40;;;;;;;36.33;16.83;;;;;;;;;;5080102;28;20110;-78
2021/12/27 11:07:06;;;;;;;33.90;15.77;;;;;;;;;;5077397;28;20077;-79
2021/12/27 11:09:34;;;;;;;30.17;15.30;;;;;;;;;;5085427;28;20064;-78
2021/12/27 11:12:01;;;;;;;30.95;13.68;;;;;;;;;;5081225;28;20105;-78
2021/12/27 11:14:27;;;;;;;32.03;14.52;;;;;;;;;;5072704;28;20049;-77
2021/12/27 11:16:54;;;;;;;28.80;14.07;;;;;;;;;;5076055;28;20099;-77
2021/12/27 11:19:21;;;;;;;29.15;14.63;;;;;;;;;;5080162;28;20147;-78
2021/12/27 11:21:49;;;;;;;26.70;13.70;;;;;;;;;;5070161;28;20102;-78
2021/12/27 11:24:16;;;;;;;30.88;14.32;;;;;;;;;;5086658;28;20090;-78
2021/12/27 11:26:43;;;;;;;27.77;14.32;;;;;;;;;;5073909;28;20048;-78
2021/12/27 11:29:21;;;;;;;31.58;15.73;;;;;;;;;;5072193;28;20092;-78
2021/12/27 11:31:48;;;;;;;30.23;14.40;;;;;;;;;;5069646;28;20573;-78
2021/12/27 11:34:15;;;;;;;30.27;14.48;;;;;;;;;;5078788;27;20053;-79
2021/12/27 11:36:47;;;;;;;29.80;14.32;;;;;;;;;;5083798;28;20131;-78
2021/12/27 11:39:33;;;;;;;26.85;13.30;;;;;;;;;;5087892;28;20064;-79
2021/12/27 11:42:03;;;;;;;25.10;12.82;;;;;;;;;;5068748;28;20112;-78
2021/12/27 11:44:35;;;;;;;26.30;13.90;;;;;;;;;;5082657;28;20056;-78
2021/12/27 11:47:01;;;;;;;25.15;12.95;;;;;;;;;;5075072;28;20056;-78
2021/12/27 11:49:36;;;;;;;24.73;13.10;;;;;;;;;;5083527;28;20091;-79
2021/12/27 11:52:16;;;;;;;28.73;13.95;;;;;;;;;;5083547;28;20138;-78
2021/12/27 11:54:56;;;;;;;24.35;12.10;;;;;;;;;;5078651;28;20111;-79
2021/12/27 11:57:43;;;;;;;18.83;11.07;;;;;;;;;;5081096;28;20139;-78
2021/12/27 12:00:29;;;;;;;23.80;12.15;;;;;;;;;;5079804;28;20506;-78
2021/12/27 12:03:16;;;;;;;22.95;11.70;;;;;;;;;;5076578;28;20569;-78
2021/12/27 12:05:44;;;;;;;23.48;12.00;;;;;;;;;;5075989;28;20109;-77
2021/12/27 12:08:15;;;;;;;23.13;12.32;;;;;;;;;;5074150;28;20467;-78
2021/12/27 12:11:01;;;;;;;23.02;12.85;;;;;;;;;;5082919;28;20364;-78
2021/12/27 12:13:28;;;;;;;31.85;17.58;;;;;;;;;;5075721;28;20151;-78
2021/12/27 12:15:57;;;;;;;26.15;12.93;;;;;;;;;;5073675;28;20099;-78
2021/12/27 12:18:26;;;;;;;25.45;13.82;;;;;;;;;;5074604;28;20084;-79
2021/12/27 12:20:52;;;;;;;22.50;12.90;;;;;;;;;;5074403;28;20535;-79
2021/12/27 12:23:52;;;;;;;26.83;13.52;;;;;;;;;;5072190;28;20048;-78
2021/12/27 12:26:19;;;;;;;24.42;12.90;;;;;;;;;;5074397;28;20191;-79
2021/12/27 12:28:45;;;;;;;23.85;12.60;;;;;;;;;;5071475;28;20100;-78
2021/12/27 12:31:11;;;;;;;21.23;12.70;;;;;;;;;;5075391;28;20106;-78
2021/12/27 12:33:38;;;;;;;22.98;12.25;;;;;;;;;;5073315;28;20053;-78
2021/12/27 12:36:04;;;;;;;23.15;12.50;;;;;;;;;;5078683;28;20527;-78
2021/12/27 12:38:32;;;;;;;21.40;12.32;;;;;;;;;;5077462;28;20575;-78
2021/12/27 12:41:06;;;;;;;21.92;11.85;;;;;;;;;;5080059;28;20147;-78
2021/12/27 12:43:34;;;;;;;26.40;15.32;;;;;;;;;;5082569;28;20052;-78
2021/12/27 12:46:09;;;;;;;24.23;13.65;;;;;;;;;;5084368;28;20057;-78
2021/12/27 12:48:36;;;;;;;23.95;12.30;;;;;;;;;;5088552;28;20057;-77
2021/12/27 12:51:02;;;;;;;21.02;12.10;;;;;;;;;;5083355;28;20084;-78
2021/12/27 12:53:30;;;;;;;23.30;11.82;;;;;;;;;;5082504;28;20080;-78
2021/12/27 12:56:06;;;;;;;21.77;11.60;;;;;;;;;;5075699;28;20110;-77
2021/12/27 12:58:36;;;;;;;20.17;11.20;;;;;;;;;;5081151;28;20057;-77
2021/12/27 13:01:04;;;;;;;21.80;12.23;;;;;;;;;;5074792;28;20123;-77
2021/12/27 13:03:31;;;;;;;19.98;10.80;;;;;;;;;;5081642;28;20053;-78
2021/12/27 13:05:58;;;;;;;21.27;11.35;;;;;;;;;;5077502;28;20143;-79
2021/12/27 13:08:25;;;;;;;22.02;11.30;;;;;;;;;;5081441;28;20049;-79
2021/12/27 13:10:54;;;;;;;23.48;12.18;;;;;;;;;;5085375;28;20048;-79
2021/12/27 13:13:21;;;;;;;22.57;11.47;;;;;;;;;;5086935;28;20059;-79
2021/12/27 13:15:59;;;;;;;21.33;10.73;;;;;;;;;;5068882;28;20295;-79
2021/12/27 13:18:26;;;;;;;21.15;11.20;;;;;;;;;;5085348;28;20047;-79
2021/12/27 13:20:55;;;;;;;21.98;11.10;;;;;;;;;;5073683;28;20590;-79
2021/12/27 13:23:23;;;;;;;18.38;11.10;;;;;;;;;;5085029;28;20053;-77
2021/12/27 13:25:51;;;;;;;23.40;11.05;;;;;;;;;;5085679;28;20052;-77
2021/12/27 13:28:20;;;;;;;18.60;10.38;;;;;;;;;;5077768;28;20504;-77
2021/12/27 13:30:52;;;;;;;18.60;10.35;;;;;;;;;;5078291;28;20467;-77
2021/12/27 13:33:21;;;;;;;22.48;10.80;;;;;;;;;;5077938;28;20053;-79
2021/12/27 13:35:47;;;;;;;20.50;11.00;;;;;;;;;;5071768;28;20114;-78
2021/12/27 13:38:15;;;;;;;22.00;10.98;;;;;;;;;;5077138;28;20065;-77
2021/12/27 13:40:50;;;;;;;19.92;11.00;;;;;;;;;;5069127;28;20052;-76
2021/12/27 13:43:17;;;;;;;19.88;10.73;;;;;;;;;;5076669;28;20427;-77
2021/12/27 13:45:44;;;;;;;22.85;11.43;;;;;;;;;;5077893;28;20084;-77
2021/12/27 13:48:11;;;;;;;21.13;11.43;;;;;;;;;;5079434;28;20144;-77
2021/12/27 13:50:39;;;;;;;18.52;11.13;;;;;;;;;;5069679;28;20052;-76
2021/12/27 13:53:10;;;;;;;20.42;11.55;;;;;;;;;;5080835;28;20103;-77
2021/12/27 13:55:36;;;;;;;26.25;12.63;;;;;;;;;;5080529;28;20151;-76
2021/12/27 13:58:16;;;;;;;22.40;12.32;;;;;;;;;;5080150;28;20064;-77
2021/12/27 14:00:43;;;;;;;23.27;11.15;;;;;;;;;;5073430;28;20049;-76
2021/12/27 14:03:23;;;;;;;20.25;11.52;;;;;;;;;;5083570;28;20128;-77
2021/12/27 14:05:54;;;;;;;21.20;12.35;;;;;;;;;;5073252;28;20057;-77
2021/12/27 14:08:21;;;;;;;19.42;11.93;;;;;;;;;;5079103;28;20565;-77
2021/12/27 14:11:01;;;;;;;21.30;11.68;;;;;;;;;;5080345;28;20080;-77
2021/12/27 14:14:03;;;;;;;23.55;11.10;;;;;;;;;;5067163;28;20121;-77
2021/12/27 14:16:34;;;;;;;23.88;11.50;;;;;;;;;;5031874;28;20081;-78
2021/12/27 14:19:00;;;;;;;19.95;11.45;;;;;;;;;;5069405;28;20041;-78